Aeroporto :
LOGIN :

Iscrizione | Disclaimer

   EN    FR    IT 

 










Sommario :    VFR   VFR Marginale   IFR   IFR Intensivo   IFR Molto Intensivo
Visibilità : 
Base nubi : 
>= 8 km
>= 3000ft
5 / 8 km
1000 / 3000 ft
1500m / 5 km
500 / 1000 ft
800 / 1500m
200 / 500 ft
< 800m
< 200 ft
Simboli :   Temporali  Nebbia  Neve Forte  Precipitazioni Forti  Vento > 20 kt
SIGMETs :   Varie  Temporali  Ghiacco  Turbolenza  Onda orograficha  Ceneri Vulcaniche






- Altitudine del aeroporto : 12 ft
- Codice IATA : CQF


LFAC - Calais

ULTIMO METAR :
  • 131730Z AUTO 03007KT CAVOK 20/12 Q1025

METARs OBSOLETI :
  • 131700Z AUTO 02007KT CAVOK 21/12 Q1025
  • 131630Z AUTO 02007KT 350V050 CAVOK 21/13 Q1025
  • 131600Z AUTO 01007KT 350V050 CAVOK 21/12 Q1026
  • 131530Z AUTO 01006KT 330V040 CAVOK 22/13 Q1026
  • 131500Z AUTO 01005KT CAVOK 22/13 Q1026

TAF N/A
ATIS : +33 3 21 00 11 14



MetMap, La meteo Aeronautica in un colpo d'occhio ! - Copyright ORBIFLY Dicembre 2007 - Disclaimer

ORBIFLY MET'MAP TEAM :

Programmazione e sviluppo : Alexandra Zaïnal
Concezione : Baudouin d'Aumeries
Aiuto per la programmazione : Marc-Olivier Méhu
Supporto tecnico e logistico : Manuel Goepfert
Aiuto per la traduzione : Arnaldo La Scala

Contatto : metmap@orbifly.com




FONTI E CREDITI :

   NOAA